Time;durP1;ratioP1;P1;durP2;ratioP2;P2;SDS_P1;SDS_P2;PMS_P1;PMS_P2;Temp;Humidity;BMP_temperature;BMP_pressure;BME280_temperature;BME280_humidity;BME280_pressure;Samples;Min_cycle;Max_cycle;Signal;HPM_P1;HPM_P2
2020/12/19 00:01:36;;;;;;;1.27;0.43;;;10.60;99.60;;;;;;4121765;28;20057;-85
2020/12/19 00:03:37;;;;;;;0.95;0.65;;;10.50;99.50;;;;;;4107235;28;20720;-84
2020/12/19 00:05:41;;;;;;;1.20;0.68;;;10.50;99.60;;;;;;4131573;28;20050;-85
2020/12/19 00:07:42;;;;;;;1.60;0.63;;;10.50;99.40;;;;;;4099717;28;20051;-85
2020/12/19 00:09:44;;;;;;;1.00;0.70;;;10.60;99.40;;;;;;4113745;28;20055;-84
2020/12/19 00:11:45;;;;;;;1.40;1.02;;;10.60;99.30;;;;;;4105911;28;20059;-85
2020/12/19 00:13:46;;;;;;;3.30;0.70;;;10.60;99.20;;;;;;4114374;28;20467;-85
2020/12/19 00:15:47;;;;;;;0.95;0.45;;;10.60;99.00;;;;;;4110093;28;20051;-85
2020/12/19 00:17:51;;;;;;;0.88;0.50;;;10.60;99.00;;;;;;4130993;28;20058;-85
2020/12/19 00:19:53;;;;;;;1.45;0.65;;;10.60;98.80;;;;;;4112712;28;20066;-85
2020/12/19 00:21:54;;;;;;;1.40;0.88;;;10.60;98.70;;;;;;4107646;28;20085;-85
2020/12/19 00:23:56;;;;;;;1.02;0.45;;;10.60;98.70;;;;;;4110906;28;20134;-85
2020/12/19 00:26:01;;;;;;;0.50;0.30;;;10.60;98.60;;;;;;4085729;28;20060;-85
2020/12/19 00:28:03;;;;;;;0.60;0.30;;;10.60;98.50;;;;;;4110099;28;20078;-85
2020/12/19 00:30:07;;;;;;;0.50;0.50;;;10.70;98.30;;;;;;4130910;28;20077;-85
2020/12/19 00:32:08;;;;;;;1.17;0.70;;;10.70;98.20;;;;;;4127578;28;20559;-86
2020/12/19 00:34:27;;;;;;;3.95;1.85;;;10.60;98.30;;;;;;4116853;28;20055;-85
2020/12/19 00:36:28;;;;;;;1.13;0.45;;;10.70;98.10;;;;;;4098574;28;20055;-85
2020/12/19 00:38:30;;;;;;;0.40;0.35;;;10.70;97.90;;;;;;4100689;28;20403;-85
2020/12/19 00:40:32;;;;;;;0.17;0.10;;;10.70;97.70;;;;;;4087088;28;20063;-84
2020/12/19 00:42:36;;;;;;;1.38;0.73;;;10.70;97.60;;;;;;4098407;28;20043;-85
2020/12/19 00:44:37;;;;;;;1.10;1.02;;;10.70;97.60;;;;;;4108414;28;20059;-85
2020/12/19 00:46:38;;;;;;;0.57;0.40;;;10.70;97.50;;;;;;4108955;28;20141;-85
2020/12/19 00:48:40;;;;;;;4.32;0.95;;;10.70;97.50;;;;;;4094694;28;20504;-85
2020/12/19 00:50:41;;;;;;;1.30;0.65;;;10.70;97.50;;;;;;4110688;28;20078;-85
2020/12/19 00:52:43;;;;;;;0.57;0.45;;;10.70;97.10;;;;;;4098877;28;20051;-85
2020/12/19 00:54:44;;;;;;;1.10;0.40;;;10.70;97.00;;;;;;4092938;28;20078;-85
2020/12/19 00:56:45;;;;;;;1.30;0.55;;;10.80;97.00;;;;;;4090355;28;20508;-85
2020/12/19 00:58:47;;;;;;;0.55;0.30;;;10.80;96.90;;;;;;4083115;29;20066;-85
2020/12/19 01:00:48;;;;;;;0.20;0.20;;;10.70;96.80;;;;;;4095183;28;20057;-85
2020/12/19 01:02:49;;;;;;;2.83;0.80;;;10.70;96.60;;;;;;4098637;28;20051;-85
2020/12/19 01:04:51;;;;;;;0.10;0.10;;;10.70;96.80;;;;;;4121052;28;20544;-85
2020/12/19 01:06:52;;;;;;;0.47;0.47;;;10.70;96.70;;;;;;4106843;28;20069;-85
2020/12/19 01:08:57;;;;;;;0.60;0.50;;;10.70;96.20;;;;;;4103645;28;20062;-84
2020/12/19 01:11:12;;;;;;;3.97;0.77;;;10.70;96.30;;;;;;4100371;28;20134;-86
2020/12/19 01:13:14;;;;;;;0.35;0.30;;;10.70;96.20;;;;;;4096925;28;20059;-85
2020/12/19 01:15:15;;;;;;;1.13;0.75;;;10.70;96.20;;;;;;4093769;28;20078;-85
2020/12/19 01:17:16;;;;;;;0.35;0.30;;;10.70;96.00;;;;;;4105725;28;20051;-86
2020/12/19 01:19:21;;;;;;;0.40;0.30;;;10.70;95.90;;;;;;4098639;28;20047;-85
2020/12/19 01:21:25;;;;;;;0.45;0.40;;;10.70;95.60;;;;;;4087047;29;20086;-85
2020/12/19 01:23:26;;;;;;;0.77;0.50;;;10.80;95.60;;;;;;4114235;28;20137;-86
2020/12/19 01:25:27;;;;;;;0.45;0.10;;;10.80;95.80;;;;;;4111239;28;20046;-85
2020/12/19 01:27:29;;;;;;;0.22;0.15;;;10.80;95.40;;;;;;4120350;28;20133;-86
2020/12/19 01:29:30;;;;;;;0.65;0.50;;;10.80;95.60;;;;;;4084462;29;20452;-87
2020/12/19 01:31:31;;;;;;;0.43;0.20;;;10.70;95.40;;;;;;4106481;28;20065;-85
2020/12/19 01:33:32;;;;;;;0.57;0.55;;;10.70;95.70;;;;;;4111930;28;20114;-85
2020/12/19 01:35:34;;;;;;;0.43;0.20;;;10.70;95.10;;;;;;4114259;28;20051;-86
2020/12/19 01:37:35;;;;;;;0.73;0.73;;;10.70;95.20;;;;;;4087429;28;20051;-85
2020/12/19 01:39:36;;;;;;;1.15;0.30;;;10.70;95.40;;;;;;4113193;28;20073;-84
2020/12/19 01:41:38;;;;;;;0.57;0.32;;;10.70;95.20;;;;;;4084439;28;20534;-85
2020/12/19 01:43:51;;;;;;;0.77;0.63;;;10.70;95.00;;;;;;4128437;28;20418;-85
2020/12/19 01:45:53;;;;;;;3.13;1.05;;;10.70;95.20;;;;;;4091909;28;20495;-85
2020/12/19 01:47:55;;;;;;;0.77;0.38;;;10.70;95.20;;;;;;4097800;28;20051;-85
2020/12/19 01:49:57;;;;;;;0.20;0.20;;;10.70;95.10;;;;;;4098491;28;20051;-86
2020/12/19 01:52:00;;;;;;;0.43;0.40;;;10.70;95.00;;;;;;4094019;28;20043;-86
2020/12/19 01:54:03;;;;;;;0.88;0.30;;;10.70;95.00;;;;;;4101528;28;20059;-85
2020/12/19 01:56:05;;;;;;;0.40;0.22;;;10.70;95.00;;;;;;4107252;28;20055;-86
2020/12/19 01:58:07;;;;;;;0.17;0.17;;;10.60;95.40;;;;;;4095280;28;20047;-85
2020/12/19 02:00:09;;;;;;;0.47;0.38;;;10.70;94.80;;;;;;4127886;28;20141;-85
2020/12/19 02:02:11;;;;;;;2.05;0.95;;;10.70;94.80;;;;;;4111574;28;20077;-86
2020/12/19 02:04:12;;;;;;;0.65;0.30;;;10.70;94.70;;;;;;4113982;28;20506;-86
2020/12/19 02:06:14;;;;;;;2.08;1.13;;;10.60;94.80;;;;;;4129291;28;20054;-86
2020/12/19 02:08:15;;;;;;;0.20;0.20;;;10.70;94.60;;;;;;4093210;28;20047;-85
2020/12/19 02:10:16;;;;;;;2.35;0.63;;;10.70;94.70;;;;;;4107482;28;20067;-85
2020/12/19 02:12:18;;;;;;;1.50;0.22;;;10.70;94.70;;;;;;4103329;28;20606;-85
2020/12/19 02:14:19;;;;;;;0.20;0.20;;;10.70;94.90;;;;;;4101391;28;20506;-86
2020/12/19 02:16:21;;;;;;;0.50;0.47;;;10.60;94.50;;;;;;4127813;28;20054;-85
2020/12/19 02:18:22;;;;;;;0.40;0.30;;;10.60;94.70;;;;;;4120000;28;20056;-85
2020/12/19 02:20:23;;;;;;;0.20;0.20;;;10.70;94.60;;;;;;4087734;29;20056;-85
2020/12/19 02:22:25;;;;;;;1.25;0.38;;;10.60;94.80;;;;;;4109952;28;20039;-85
2020/12/19 02:24:26;;;;;;;2.55;0.40;;;10.60;94.50;;;;;;4099855;28;20051;-85
2020/12/19 02:26:27;;;;;;;0.13;0.13;;;10.60;94.60;;;;;;4101171;28;20051;-85
2020/12/19 02:28:28;;;;;;;2.70;0.45;;;10.60;94.50;;;;;;4093409;28;20053;-85
2020/12/19 02:30:30;;;;;;;4.00;0.38;;;10.60;94.50;;;;;;4120483;28;20949;-86
2020/12/19 02:32:31;;;;;;;0.65;0.43;;;10.60;94.80;;;;;;4117228;28;20050;-86
2020/12/19 02:34:32;;;;;;;0.50;0.40;;;10.60;94.70;;;;;;4109634;28;20047;-85
2020/12/19 02:36:34;;;;;;;0.63;0.40;;;10.60;94.80;;;;;;4105443;28;20240;-85
2020/12/19 02:38:36;;;;;;;1.02;0.55;;;10.50;94.90;;;;;;4118773;28;20134;-85
2020/12/19 02:40:37;;;;;;;1.05;0.20;;;10.50;94.60;;;;;;4099628;28;20051;-86
2020/12/19 02:42:38;;;;;;;0.10;0.10;;;10.50;94.90;;;;;;4113359;28;20147;-87
2020/12/19 02:44:39;;;;;;;0.73;0.50;;;10.50;94.70;;;;;;4104138;28;20549;-85
2020/12/19 02:46:41;;;;;;;0.50;0.50;;;10.50;94.70;;;;;;4116119;28;20055;-85
2020/12/19 02:48:42;;;;;;;0.25;0.25;;;10.50;94.70;;;;;;4107273;28;20050;-86
2020/12/19 02:50:43;;;;;;;0.52;0.40;;;10.50;94.60;;;;;;4116684;28;20047;-86
2020/12/19 02:52:45;;;;;;;0.50;0.25;;;10.50;94.70;;;;;;4132251;28;20057;-85
2020/12/19 02:54:46;;;;;;;0.65;0.43;;;10.50;94.70;;;;;;4114891;28;20047;-85
2020/12/19 02:56:47;;;;;;;0.20;0.20;;;10.50;94.40;;;;;;4102643;28;20067;-88
2020/12/19 02:58:49;;;;;;;0.35;0.30;;;10.50;94.30;;;;;;4096480;28;20062;-85
2020/12/19 03:00:51;;;;;;;0.32;0.32;;;10.50;94.20;;;;;;4106590;28;20078;-85
2020/12/19 03:02:53;;;;;;;0.20;0.20;;;10.50;94.70;;;;;;4115998;28;20046;-85
2020/12/19 03:04:54;;;;;;;3.92;1.00;;;10.50;94.20;;;;;;4098282;28;20134;-85
2020/12/19 03:06:55;;;;;;;0.28;0.28;;;10.60;94.30;;;;;;4095447;28;20519;-85
2020/12/19 03:08:56;;;;;;;0.43;0.35;;;10.50;94.10;;;;;;4115937;28;20066;-86
2020/12/19 03:10:58;;;;;;;1.05;0.95;;;10.50;94.30;;;;;;4116794;28;20062;-85
2020/12/19 03:12:59;;;;;;;0.20;0.20;;;10.50;94.20;;;;;;4116070;28;20055;-86
2020/12/19 03:15:01;;;;;;;1.45;0.55;;;10.50;94.20;;;;;;4105033;28;20065;-85
2020/12/19 03:17:02;;;;;;;1.17;0.40;;;10.50;94.00;;;;;;4116141;28;20137;-86
2020/12/19 03:19:03;;;;;;;0.20;0.20;;;10.50;94.20;;;;;;4091592;28;20056;-85
2020/12/19 03:21:04;;;;;;;1.65;0.85;;;10.50;94.00;;;;;;4100486;28;20138;-85
2020/12/19 03:23:06;;;;;;;0.20;0.20;;;10.60;94.00;;;;;;4131849;28;20132;-86
2020/12/19 03:25:08;;;;;;;0.60;0.40;;;10.70;93.80;;;;;;4125663;28;20076;-87
2020/12/19 03:27:18;;;;;;;0.10;0.10;;;10.70;93.80;;;;;;4110415;28;20046;-85
2020/12/19 03:29:19;;;;;;;1.05;0.88;;;10.70;93.60;;;;;;4100248;28;20055;-86
2020/12/19 03:31:20;;;;;;;0.70;0.35;;;10.70;93.90;;;;;;4094638;28;20143;-86
2020/12/19 03:33:22;;;;;;;0.20;0.20;;;10.70;93.70;;;;;;4133506;28;20046;-85
2020/12/19 03:35:24;;;;;;;0.57;0.20;;;10.70;93.70;;;;;;4116190;28;20446;-85
2020/12/19 03:37:25;;;;;;;0.45;0.45;;;10.70;93.60;;;;;;4109962;28;20065;-85
2020/12/19 03:39:27;;;;;;;0.30;0.20;;;10.70;93.80;;;;;;4121546;28;20064;-85
2020/12/19 03:41:28;;;;;;;1.98;0.20;;;10.70;93.90;;;;;;4116125;28;20046;-86
2020/12/19 03:43:29;;;;;;;0.80;0.40;;;10.70;93.70;;;;;;4130796;28;20096;-85
2020/12/19 03:45:30;;;;;;;1.42;0.32;;;10.70;93.90;;;;;;4112785;28;20554;-85
2020/12/19 03:47:32;;;;;;;0.25;0.25;;;10.70;93.70;;;;;;4114459;28;20491;-85
2020/12/19 03:49:33;;;;;;;1.05;0.30;;;10.60;93.80;;;;;;4097582;28;20130;-85
2020/12/19 03:51:34;;;;;;;0.32;0.15;;;10.70;93.80;;;;;;4118010;28;20125;-86
2020/12/19 03:53:36;;;;;;;0.47;0.20;;;10.70;93.90;;;;;;4115586;28;20503;-86
2020/12/19 03:55:37;;;;;;;0.20;0.20;;;10.70;93.90;;;;;;4114135;28;20146;-85
2020/12/19 03:57:38;;;;;;;0.20;0.15;;;10.70;93.70;;;;;;4099390;28;20080;-85
2020/12/19 03:59:39;;;;;;;0.10;0.10;;;10.70;93.90;;;;;;4100259;28;20054;-86
2020/12/19 04:01:41;;;;;;;1.95;0.43;;;10.70;93.90;;;;;;4113120;28;20051;-86
2020/12/19 04:03:42;;;;;;;1.85;0.30;;;10.60;93.90;;;;;;4098043;28;20106;-85
2020/12/19 04:05:43;;;;;;;5.10;1.20;;;10.60;93.90;;;;;;4115090;28;20549;-85
2020/12/19 04:07:45;;;;;;;0.30;0.20;;;10.60;94.00;;;;;;4099010;28;20053;-85
2020/12/19 04:09:46;;;;;;;0.82;0.40;;;10.60;94.10;;;;;;4115076;28;20062;-85
2020/12/19 04:11:47;;;;;;;0.38;0.25;;;10.60;94.10;;;;;;4099414;28;20431;-86
2020/12/19 04:13:48;;;;;;;0.43;0.43;;;10.60;94.10;;;;;;4100328;28;20490;-85
2020/12/19 04:15:50;;;;;;;0.30;0.20;;;10.50;94.40;;;;;;4099960;28;20134;-86
2020/12/19 04:17:51;;;;;;;0.68;0.28;;;10.50;94.30;;;;;;4099557;28;20058;-86
2020/12/19 04:19:53;;;;;;;0.10;0.10;;;10.50;94.30;;;;;;4096523;28;20055;-85
2020/12/19 04:21:55;;;;;;;0.95;0.30;;;10.50;94.50;;;;;;4108628;28;20509;-86
2020/12/19 04:23:57;;;;;;;0.43;0.43;;;10.50;94.50;;;;;;4099315;28;20043;-86
2020/12/19 04:25:59;;;;;;;0.20;0.10;;;10.50;94.50;;;;;;4120997;28;20122;-86
2020/12/19 04:28:00;;;;;;;2.67;0.93;;;10.50;94.40;;;;;;4108082;28;20050;-85
2020/12/19 04:30:05;;;;;;;2.05;1.25;;;10.40;94.50;;;;;;4103950;28;20142;-85
2020/12/19 04:32:06;;;;;;;;;;;10.40;94.70;;;;;;4116354;28;20051;-85
2020/12/19 04:34:10;;;;;;;0.17;0.17;;;10.40;94.70;;;;;;4110940;28;20346;-86
2020/12/19 04:36:11;;;;;;;0.15;0.15;;;10.40;94.70;;;;;;4098518;28;20122;-86
2020/12/19 04:38:12;;;;;;;0.20;0.20;;;10.40;94.60;;;;;;4115431;28;20055;-86
2020/12/19 04:40:14;;;;;;;0.30;0.22;;;10.40;94.60;;;;;;4098193;29;20057;-85
2020/12/19 04:42:16;;;;;;;1.30;0.40;;;10.40;94.70;;;;;;4088510;28;20052;-86
2020/12/19 04:44:17;;;;;;;0.65;0.30;;;10.40;94.70;;;;;;4095612;28;20672;-86
2020/12/19 04:46:19;;;;;;;0.13;0.13;;;10.40;94.60;;;;;;4098491;28;20530;-86
2020/12/19 04:48:23;;;;;;;0.60;0.38;;;10.40;94.60;;;;;;4113833;28;20123;-86
2020/12/19 04:50:24;;;;;;;0.20;0.20;;;10.40;94.60;;;;;;4100706;28;20043;-84
2020/12/19 04:52:27;;;;;;;2.35;0.22;;;10.40;94.60;;;;;;4114717;28;20106;-85
2020/12/19 04:54:28;;;;;;;0.20;0.20;;;10.40;94.70;;;;;;4098218;28;20082;-86
2020/12/19 04:56:30;;;;;;;0.77;0.30;;;10.40;94.70;;;;;;4101419;28;20516;-86
2020/12/19 04:58:31;;;;;;;1.30;0.43;;;10.40;94.80;;;;;;4113350;28;20507;-86
2020/12/19 05:00:32;;;;;;;0.30;0.30;;;10.30;94.70;;;;;;4113477;28;20055;-85
2020/12/19 05:02:33;;;;;;;0.30;0.20;;;10.30;94.80;;;;;;4097789;28;20055;-85
2020/12/19 05:04:38;;;;;;;0.73;0.55;;;10.30;94.80;;;;;;4099023;28;20127;-85
2020/12/19 05:06:39;;;;;;;1.85;0.60;;;10.20;94.80;;;;;;4110614;28;20133;-86
2020/12/19 05:08:41;;;;;;;1.00;0.50;;;10.20;94.90;;;;;;4114292;28;20061;-86
2020/12/19 05:10:42;;;;;;;1.27;0.90;;;10.10;95.10;;;;;;4110278;28;20055;-86
2020/12/19 05:12:44;;;;;;;0.93;0.73;;;10.00;95.10;;;;;;4090399;28;20046;-85
2020/12/19 05:14:45;;;;;;;2.90;0.80;;;9.90;95.40;;;;;;4121870;28;20088;-86
2020/12/19 05:16:47;;;;;;;1.98;1.20;;;9.70;95.80;;;;;;4113659;28;20054;-85
2020/12/19 05:18:49;;;;;;;1.48;1.17;;;9.70;95.80;;;;;;4111829;28;20057;-86
2020/12/19 05:20:51;;;;;;;1.63;0.65;;;9.60;96.10;;;;;;4098621;28;20086;-86
2020/12/19 05:22:53;;;;;;;2.80;1.42;;;9.50;96.20;;;;;;4120898;28;20093;-85
2020/12/19 05:24:54;;;;;;;1.88;1.02;;;9.50;96.10;;;;;;4091009;28;20074;-86
2020/12/19 05:26:56;;;;;;;2.13;1.83;;;9.50;96.20;;;;;;4107929;28;20093;-85
2020/12/19 05:28:57;;;;;;;1.35;0.75;;;9.50;96.00;;;;;;4110421;28;20085;-85
2020/12/19 05:30:59;;;;;;;0.77;0.68;;;9.40;96.30;;;;;;4097803;28;20431;-85
2020/12/19 05:33:00;;;;;;;0.50;0.50;;;9.30;96.60;;;;;;4084375;29;20051;-85
2020/12/19 05:35:06;;;;;;;0.88;0.88;;;9.20;96.80;;;;;;4103668;28;20586;-85
2020/12/19 05:37:07;;;;;;;1.67;1.08;;;9.10;97.00;;;;;;4108450;28;20071;-85
2020/12/19 05:39:08;;;;;;;6.78;3.13;;;9.10;96.80;;;;;;4109767;28;20053;-85
2020/12/19 05:41:13;;;;;;;3.20;1.27;;;9.10;96.80;;;;;;4106875;28;20054;-85
2020/12/19 05:43:15;;;;;;;3.13;1.23;;;9.10;97.00;;;;;;4112631;28;20606;-85
2020/12/19 05:45:17;;;;;;;1.75;1.40;;;9.00;97.10;;;;;;4096006;28;20051;-85
2020/12/19 05:47:18;;;;;;;0.68;0.65;;;8.90;97.30;;;;;;4110065;28;20182;-86
2020/12/19 05:49:21;;;;;;;1.70;1.35;;;8.80;97.40;;;;;;4091206;28;20135;-85
2020/12/19 05:51:24;;;;;;;0.93;0.82;;;8.80;97.50;;;;;;4112593;28;20053;-85
2020/12/19 05:53:26;;;;;;;0.88;0.85;;;8.70;97.70;;;;;;4116168;28;20530;-85
2020/12/19 05:55:27;;;;;;;2.78;1.20;;;8.60;97.90;;;;;;4115540;28;20055;-85
2020/12/19 05:57:28;;;;;;;5.30;1.23;;;8.60;97.90;;;;;;4104790;28;20054;-84
2020/12/19 05:59:29;;;;;;;4.25;1.88;;;8.50;98.00;;;;;;4115544;28;20054;-86
2020/12/19 06:01:31;;;;;;;1.15;0.70;;;8.60;97.90;;;;;;4111521;28;20065;-85
2020/12/19 06:03:32;;;;;;;3.60;1.52;;;8.60;97.70;;;;;;4132090;28;20050;-85
2020/12/19 06:05:34;;;;;;;1.33;0.95;;;8.50;97.90;;;;;;4115966;28;20138;-85
2020/12/19 06:07:47;;;;;;;1.73;1.63;;;8.60;97.90;;;;;;4109277;28;20057;-85
2020/12/19 06:09:49;;;;;;;2.83;1.83;;;8.60;98.00;;;;;;4093433;28;20043;-85
2020/12/19 06:12:09;;;;;;;3.78;1.77;;;8.50;98.20;;;;;;4116930;28;20539;-86
2020/12/19 06:14:14;;;;;;;9.40;3.13;;;8.50;98.10;;;;;;4127252;28;20050;-86
2020/12/19 06:16:16;;;;;;;1.98;0.52;;;8.50;98.10;;;;;;4097188;28;20060;-85
2020/12/19 06:18:47;;;;;;;1.67;0.95;;;8.50;98.20;;;;;;4093503;28;20130;-85
2020/12/19 06:20:49;;;;;;;2.10;1.20;;;8.50;98.70;;;;;;4134646;28;20115;-86
2020/12/19 06:22:50;;;;;;;1.02;0.82;;;8.50;98.60;;;;;;4108331;28;20173;-85
2020/12/19 06:24:52;;;;;;;2.33;1.52;;;8.50;98.50;;;;;;4109022;28;20150;-86
2020/12/19 06:26:53;;;;;;;1.38;1.27;;;8.50;98.40;;;;;;4103806;28;20063;-85
2020/12/19 06:28:54;;;;;;;1.38;1.08;;;8.50;98.40;;;;;;4101079;28;20051;-87
2020/12/19 06:31:04;;;;;;;1.10;0.73;;;8.40;98.20;;;;;;4100340;28;20055;-85
2020/12/19 06:33:13;;;;;;;0.85;0.52;;;8.50;98.20;;;;;;4086978;28;20124;-86
2020/12/19 06:35:14;;;;;;;2.15;1.67;;;8.40;98.10;;;;;;4097464;28;20066;-85
2020/12/19 06:37:15;;;;;;;3.45;2.20;;;8.40;98.20;;;;;;4095070;28;20449;-85
2020/12/19 06:39:17;;;;;;;2.65;1.80;;;8.30;98.50;;;;;;4098163;28;20462;-85
2020/12/19 06:41:43;;;;;;;0.98;0.88;;;8.30;99.00;;;;;;4111245;28;20063;-85
2020/12/19 06:44:19;;;;;;;2.17;1.38;;;8.20;99.00;;;;;;4116822;28;20331;-85
2020/12/19 06:46:46;;;;;;;2.08;1.48;;;8.10;99.20;;;;;;4114152;28;20749;-85
2020/12/19 06:48:48;;;;;;;3.85;2.20;;;8.10;99.00;;;;;;4110849;28;20054;-85
2020/12/19 06:50:56;;;;;;;2.22;1.88;;;8.10;99.10;;;;;;4104107;28;20067;-85
2020/12/19 06:52:58;;;;;;;1.98;1.65;;;8.10;99.10;;;;;;4130176;28;20058;-84
2020/12/19 06:55:00;;;;;;;2.15;1.75;;;8.10;99.00;;;;;;4099626;28;20058;-85
2020/12/19 06:57:03;;;;;;;12.23;2.45;;;8.00;99.30;;;;;;4112125;28;20146;-85
2020/12/19 06:59:04;;;;;;;1.05;0.90;;;7.90;99.30;;;;;;4111374;28;20054;-84
2020/12/19 07:01:30;;;;;;;2.50;0.95;;;7.90;99.50;;;;;;4130469;28;20076;-85
2020/12/19 07:03:50;;;;;;;5.70;2.03;;;7.90;99.60;;;;;;4128363;28;20136;-85
2020/12/19 07:05:52;;;;;;;0.68;0.50;;;7.80;99.60;;;;;;4114250;28;20090;-84
2020/12/19 07:08:14;;;;;;;4.53;2.15;;;7.80;99.50;;;;;;4100495;28;20055;-85
2020/12/19 07:10:15;;;;;;;1.25;0.82;;;7.80;99.70;;;;;;4129810;28;20081;-86
2020/12/19 07:12:35;;;;;;;0.80;0.75;;;7.80;99.50;;;;;;4107018;28;20051;-87
2020/12/19 07:14:40;;;;;;;1.20;1.15;;;7.90;99.60;;;;;;4120699;28;20093;-85
2020/12/19 07:16:47;;;;;;;;;;;7.90;99.60;;;;;;4107165;28;20507;-87
2020/12/19 07:18:49;;;;;;;1.92;1.40;;;7.90;99.40;;;;;;4121654;28;20321;-86
2020/12/19 07:21:01;;;;;;;1.30;1.20;;;7.90;99.50;;;;;;4115946;28;20522;-85
2020/12/19 07:23:02;;;;;;;3.38;2.30;;;7.90;99.50;;;;;;4131481;28;20422;-86
2020/12/19 07:25:05;;;;;;;2.00;1.85;;;7.90;99.60;;;;;;4131476;28;20085;-85
2020/12/19 07:27:06;;;;;;;0.98;0.50;;;7.90;99.40;;;;;;4112692;28;20574;-84
2020/12/19 07:29:20;;;;;;;2.40;2.15;;;7.90;99.50;;;;;;4120842;28;20442;-86
2020/12/19 07:31:21;;;;;;;2.20;1.65;;;7.90;99.40;;;;;;4109630;28;20051;-84
2020/12/19 07:33:23;;;;;;;3.55;1.70;;;7.90;99.40;;;;;;4098955;28;20059;-85
2020/12/19 07:35:25;;;;;;;3.47;1.70;;;7.90;99.40;;;;;;4086587;29;20138;-84
2020/12/19 07:37:26;;;;;;;2.58;2.28;;;8.00;99.30;;;;;;4112565;28;20057;-85
2020/12/19 07:39:27;;;;;;;1.55;1.05;;;8.00;99.60;;;;;;4131292;28;20133;-85
2020/12/19 07:41:28;;;;;;;1.45;1.35;;;8.00;99.50;;;;;;4113633;28;20507;-84
2020/12/19 07:43:29;;;;;;;2.47;0.80;;;8.00;99.40;;;;;;4095095;29;20051;-85
2020/12/19 07:45:31;;;;;;;1.20;1.02;;;8.10;99.20;;;;;;4127798;28;20050;-83
2020/12/19 07:47:32;;;;;;;1.90;1.67;;;8.10;99.20;;;;;;4106424;28;20075;-86
2020/12/19 07:49:52;;;;;;;2.25;1.42;;;8.10;99.30;;;;;;4129832;28;20062;-85
2020/12/19 07:52:07;;;;;;;3.00;2.80;;;8.10;99.50;;;;;;4103892;28;20065;-88
2020/12/19 07:54:11;;;;;;;1.70;1.17;;;8.10;99.20;;;;;;4108755;28;20141;-89
2020/12/19 07:56:12;;;;;;;1.55;0.90;;;8.10;99.20;;;;;;4095609;28;20542;-90
2020/12/19 07:58:13;;;;;;;3.10;2.00;;;8.10;99.30;;;;;;4113945;28;20046;-94
2020/12/19 08:00:16;;;;;;;3.38;2.75;;;8.10;99.20;;;;;;4118645;28;20062;-91
2020/12/19 08:02:17;;;;;;;1.85;1.35;;;8.10;99.20;;;;;;4106379;28;20062;-89
2020/12/19 08:04:19;;;;;;;2.45;1.15;;;8.10;99.40;;;;;;4112671;28;20550;-88
2020/12/19 08:06:20;;;;;;;2.35;1.20;;;8.10;99.30;;;;;;4098280;28;20179;-91
2020/12/19 08:08:21;;;;;;;2.03;1.30;;;8.10;99.40;;;;;;4099941;28;20557;-89
2020/12/19 08:10:22;;;;;;;2.05;1.90;;;8.10;99.40;;;;;;4108945;28;20509;-89
2020/12/19 08:12:25;;;;;;;3.17;1.55;;;8.10;99.40;;;;;;4114919;28;20046;-89
2020/12/19 08:14:26;;;;;;;0.77;0.77;;;8.10;99.40;;;;;;4097988;28;20568;-85
2020/12/19 08:16:30;;;;;;;2.70;1.55;;;8.10;99.50;;;;;;4097673;28;20069;-89
2020/12/19 08:18:31;;;;;;;0.98;0.68;;;8.10;99.50;;;;;;4087750;29;20050;-90
2020/12/19 08:20:34;;;;;;;1.20;1.02;;;8.10;99.50;;;;;;4084406;28;20051;-90
2020/12/19 08:22:36;;;;;;;1.95;1.30;;;8.10;99.40;;;;;;4101323;28;20055;-89
2020/12/19 08:24:37;;;;;;;3.90;1.35;;;8.20;99.40;;;;;;4106932;28;20059;-89
2020/12/19 08:26:38;;;;;;;3.53;1.17;;;8.20;99.40;;;;;;4113581;28;20055;-89
2020/12/19 08:28:39;;;;;;;2.75;1.58;;;8.20;99.50;;;;;;4094155;29;20051;-89
2020/12/19 08:30:41;;;;;;;1.45;1.35;;;8.20;99.50;;;;;;4120320;28;20734;-89
2020/12/19 08:32:47;;;;;;;1.45;0.77;;;8.20;99.40;;;;;;4108443;28;20049;-87
2020/12/19 08:34:50;;;;;;;1.63;1.52;;;8.30;99.30;;;;;;4127048;28;20056;-89
2020/12/19 08:36:52;;;;;;;4.88;1.20;;;8.30;99.30;;;;;;4100022;28;20074;-88
2020/12/19 08:39:11;;;;;;;2.00;1.35;;;8.30;99.40;;;;;;4115911;28;20050;-94
2020/12/19 08:41:20;;;;;;;1.10;1.00;;;8.30;99.40;;;;;;4100723;28;20051;-94
2020/12/19 08:43:29;;;;;;;2.28;1.63;;;8.20;99.40;;;;;;4096783;28;20054;-91
2020/12/19 08:45:37;;;;;;;2.10;1.65;;;8.30;99.50;;;;;;4092697;28;20093;-89
2020/12/19 08:47:41;;;;;;;0.70;0.60;;;8.30;99.40;;;;;;4127782;28;20050;-89
2020/12/19 08:49:42;;;;;;;1.23;0.57;;;8.40;99.20;;;;;;4118992;28;20058;-88
2020/12/19 08:51:52;;;;;;;2.35;1.45;;;8.40;99.20;;;;;;4131827;28;20066;-89
2020/12/19 08:53:54;;;;;;;0.95;0.85;;;8.50;99.20;;;;;;4131693;28;20055;-90
2020/12/19 08:55:55;;;;;;;2.28;0.93;;;8.50;99.10;;;;;;4100397;28;20508;-89
2020/12/19 08:58:01;;;;;;;1.42;1.00;;;8.50;99.10;;;;;;4113640;28;20101;-89
2020/12/19 09:00:15;;;;;;;3.95;2.58;;;8.50;99.00;;;;;;4131266;28;20058;-89
2020/12/19 09:02:16;;;;;;;0.45;0.45;;;8.60;99.00;;;;;;4129384;28;20054;-89
2020/12/19 09:04:18;;;;;;;4.45;2.55;;;8.60;99.10;;;;;;4111380;28;20066;-90
2020/12/19 09:06:19;;;;;;;2.75;1.77;;;8.60;99.10;;;;;;4105208;28;20049;-88
2020/12/19 09:08:20;;;;;;;2.58;1.30;;;8.70;99.00;;;;;;4087439;29;20063;-86
2020/12/19 09:10:33;;;;;;;0.95;0.73;;;8.70;99.10;;;;;;4113720;28;20039;-89
2020/12/19 09:12:34;;;;;;;0.82;0.77;;;8.80;99.10;;;;;;4123192;28;20050;-89
2020/12/19 09:14:48;;;;;;;2.80;2.00;;;8.90;99.10;;;;;;4126518;28;20420;-89
2020/12/19 09:16:51;;;;;;;1.13;1.02;;;9.00;99.00;;;;;;4117522;28;20047;-89
2020/12/19 09:18:53;;;;;;;1.95;1.02;;;9.10;99.00;;;;;;4113979;28;20051;-88
2020/12/19 09:20:56;;;;;;;1.70;1.40;;;9.20;98.90;;;;;;4120050;28;20054;-88
2020/12/19 09:23:04;;;;;;;2.40;1.65;;;9.30;99.10;;;;;;4100723;28;20043;-89
2020/12/19 09:25:06;;;;;;;0.95;0.57;;;9.40;98.60;;;;;;4130718;28;20204;-89
2020/12/19 09:27:07;;;;;;;1.92;1.73;;;9.50;98.60;;;;;;4117681;28;20135;-89
2020/12/19 09:29:09;;;;;;;1.55;1.02;;;9.50;98.50;;;;;;4120802;28;20137;-89
2020/12/19 09:31:10;;;;;;;0.82;0.70;;;9.60;98.40;;;;;;4128373;28;20026;-86
2020/12/19 09:33:11;;;;;;;4.32;1.15;;;9.70;98.40;;;;;;4119392;28;20090;-84
2020/12/19 09:35:12;;;;;;;0.65;0.57;;;9.90;98.20;;;;;;4151285;28;20034;-87
2020/12/19 09:37:16;;;;;;;1.75;0.65;;;10.00;98.10;;;;;;4135252;28;20055;-90
2020/12/19 09:39:17;;;;;;;1.05;0.40;;;10.00;97.90;;;;;;4133135;28;20023;-85
2020/12/19 09:41:20;;;;;;;2.30;0.65;;;10.10;97.90;;;;;;4116021;28;20107;-87
2020/12/19 09:43:21;;;;;;;1.75;0.50;;;10.20;97.70;;;;;;4119207;28;20110;-87
2020/12/19 09:45:22;;;;;;;2.08;1.17;;;10.20;97.80;;;;;;4123812;28;20055;-88
2020/12/19 09:47:23;;;;;;;0.50;0.30;;;10.30;97.60;;;;;;4134761;28;20057;-88
2020/12/19 09:49:25;;;;;;;1.70;0.82;;;10.30;97.40;;;;;;4128488;28;20038;-89
2020/12/19 09:51:34;;;;;;;1.33;0.70;;;10.40;97.70;;;;;;4117280;28;20189;-88
2020/12/19 09:53:36;;;;;;;2.45;0.88;;;10.50;97.60;;;;;;4113661;28;20055;-91
2020/12/19 09:55:37;;;;;;;0.75;0.60;;;10.50;97.30;;;;;;4146425;28;20046;-90
2020/12/19 09:57:38;;;;;;;5.25;0.90;;;10.60;97.20;;;;;;4099097;28;20598;-91
2020/12/19 09:59:39;;;;;;;3.33;1.10;;;10.60;96.90;;;;;;4130771;28;20061;-89
2020/12/19 10:01:41;;;;;;;1.20;1.10;;;10.70;96.40;;;;;;4112842;28;20055;-90
2020/12/19 10:03:42;;;;;;;2.95;0.65;;;10.70;96.70;;;;;;4112428;28;20081;-89
2020/12/19 10:05:44;;;;;;;1.38;0.82;;;10.70;96.90;;;;;;4115161;28;20047;-90
2020/12/19 10:07:46;;;;;;;1.23;0.40;;;10.70;96.70;;;;;;4121769;28;20088;-89
2020/12/19 10:09:47;;;;;;;4.20;1.77;;;10.80;96.60;;;;;;4122641;28;20085;-91
2020/12/19 10:11:49;;;;;;;1.30;0.95;;;10.80;96.50;;;;;;4116649;28;20054;-90
2020/12/19 10:13:50;;;;;;;2.78;1.58;;;10.80;96.30;;;;;;4115074;28;20053;-91
2020/12/19 10:15:52;;;;;;;1.05;0.68;;;10.80;96.30;;;;;;4115039;28;20058;-90
2020/12/19 10:17:53;;;;;;;1.25;0.82;;;10.80;96.10;;;;;;4130290;28;20046;-90
2020/12/19 10:19:55;;;;;;;2.15;1.45;;;10.90;96.30;;;;;;4099399;29;20050;-89
2020/12/19 10:21:58;;;;;;;2.90;2.17;;;11.00;96.40;;;;;;4116309;28;20057;-91
2020/12/19 10:23:59;;;;;;;6.40;1.98;;;11.00;95.80;;;;;;4118809;28;20062;-90
2020/12/19 10:26:02;;;;;;;0.95;0.77;;;11.10;96.00;;;;;;4131003;28;20046;-89
2020/12/19 10:28:04;;;;;;;5.03;2.35;;;11.10;95.30;;;;;;4128839;28;20053;-90
2020/12/19 10:30:05;;;;;;;1.77;0.68;;;11.20;95.70;;;;;;4102639;28;20111;-88
2020/12/19 10:32:10;;;;;;;4.20;1.05;;;11.10;95.20;;;;;;4129411;28;20050;-88
2020/12/19 10:34:12;;;;;;;4.72;1.55;;;11.10;95.50;;;;;;4131957;28;20049;-93
2020/12/19 10:36:14;;;;;;;5.88;1.50;;;11.10;95.50;;;;;;4133125;28;20058;-87
2020/12/19 10:38:15;;;;;;;2.65;2.08;;;11.20;95.70;;;;;;4129810;28;20133;-85
2020/12/19 10:40:32;;;;;;;1.88;1.15;;;11.20;95.20;;;;;;4116886;28;20054;-89
2020/12/19 10:42:33;;;;;;;0.60;0.57;;;11.30;95.80;;;;;;4114394;28;20061;-89
2020/12/19 10:44:35;;;;;;;0.60;0.45;;;11.40;95.30;;;;;;4085988;28;20134;-88